sensor_id;sensor_type;location;lat;lon;timestamp;P1;durP1;ratioP1;P2;durP2;ratioP2
39948;SDS011;29070;48.102;-1.652;2022-09-02T00:04:16;11.23;;;6.53;;
39948;SDS011;29070;48.102;-1.652;2022-09-02T00:09:20;15.13;;;6.95;;
39948;SDS011;29070;48.102;-1.652;2022-09-02T00:14:30;12.13;;;6.88;;
39948;SDS011;29070;48.102;-1.652;2022-09-02T00:19:33;10.13;;;5.78;;
39948;SDS011;29070;48.102;-1.652;2022-09-02T00:24:33;12.23;;;6.13;;
39948;SDS011;29070;48.102;-1.652;2022-09-02T00:29:34;11.50;;;6.40;;
39948;SDS011;29070;48.102;-1.652;2022-09-02T00:34:34;15.77;;;7.03;;
39948;SDS011;29070;48.102;-1.652;2022-09-02T00:39:34;11.77;;;5.97;;
39948;SDS011;29070;48.102;-1.652;2022-09-02T00:44:35;11.23;;;5.97;;
39948;SDS011;29070;48.102;-1.652;2022-09-02T00:49:37;11.27;;;6.27;;
39948;SDS011;29070;48.102;-1.652;2022-09-02T00:55:15;9.00;;;5.57;;
39948;SDS011;29070;48.102;-1.652;2022-09-02T01:05:11;10.45;;;6.40;;
39948;SDS011;29070;48.102;-1.652;2022-09-02T01:10:36;10.17;;;5.77;;
39948;SDS011;29070;48.102;-1.652;2022-09-02T01:15:37;10.55;;;5.90;;
39948;SDS011;29070;48.102;-1.652;2022-09-02T01:20:42;13.30;;;7.00;;
39948;SDS011;29070;48.102;-1.652;2022-09-02T01:25:43;14.60;;;6.82;;
39948;SDS011;29070;48.102;-1.652;2022-09-02T01:30:48;12.32;;;7.50;;
39948;SDS011;29070;48.102;-1.652;2022-09-02T01:35:51;12.32;;;7.10;;
39948;SDS011;29070;48.102;-1.652;2022-09-02T01:40:52;13.95;;;7.93;;
39948;SDS011;29070;48.102;-1.652;2022-09-02T01:45:54;13.48;;;7.95;;
39948;SDS011;29070;48.102;-1.652;2022-09-02T01:50:58;14.05;;;9.45;;
39948;SDS011;29070;48.102;-1.652;2022-09-02T01:56:00;12.38;;;7.38;;
39948;SDS011;29070;48.102;-1.652;2022-09-02T02:01:00;13.23;;;7.70;;
39948;SDS011;29070;48.102;-1.652;2022-09-02T02:06:01;13.32;;;7.35;;
39948;SDS011;29070;48.102;-1.652;2022-09-02T02:11:07;16.70;;;7.78;;
39948;SDS011;29070;48.102;-1.652;2022-09-02T02:16:08;14.82;;;8.02;;
39948;SDS011;29070;48.102;-1.652;2022-09-02T02:21:09;12.25;;;7.03;;
39948;SDS011;29070;48.102;-1.652;2022-09-02T02:26:10;13.50;;;8.07;;
39948;SDS011;29070;48.102;-1.652;2022-09-02T02:31:10;18.73;;;9.07;;
39948;SDS011;29070;48.102;-1.652;2022-09-02T02:36:11;15.98;;;8.50;;
39948;SDS011;29070;48.102;-1.652;2022-09-02T02:41:14;15.43;;;9.20;;
39948;SDS011;29070;48.102;-1.652;2022-09-02T02:46:14;18.48;;;8.65;;
39948;SDS011;29070;48.102;-1.652;2022-09-02T02:51:15;17.60;;;9.18;;
39948;SDS011;29070;48.102;-1.652;2022-09-02T02:56:15;19.75;;;10.65;;
39948;SDS011;29070;48.102;-1.652;2022-09-02T03:01:16;17.27;;;9.57;;
39948;SDS011;29070;48.102;-1.652;2022-09-02T03:06:16;20.53;;;10.77;;
39948;SDS011;29070;48.102;-1.652;2022-09-02T03:11:17;17.10;;;9.60;;
39948;SDS011;29070;48.102;-1.652;2022-09-02T03:16:21;16.25;;;9.27;;
39948;SDS011;29070;48.102;-1.652;2022-09-02T03:21:22;22.23;;;11.20;;
39948;SDS011;29070;48.102;-1.652;2022-09-02T03:26:22;21.00;;;10.83;;
39948;SDS011;29070;48.102;-1.652;2022-09-02T03:31:25;22.88;;;10.35;;
39948;SDS011;29070;48.102;-1.652;2022-09-02T03:36:29;21.98;;;10.93;;
39948;SDS011;29070;48.102;-1.652;2022-09-02T03:41:34;21.00;;;10.75;;
39948;SDS011;29070;48.102;-1.652;2022-09-02T03:46:35;23.27;;;10.88;;
39948;SDS011;29070;48.102;-1.652;2022-09-02T03:51:38;18.77;;;10.85;;
39948;SDS011;29070;48.102;-1.652;2022-09-02T03:56:40;18.77;;;9.27;;
39948;SDS011;29070;48.102;-1.652;2022-09-02T04:01:40;19.77;;;9.43;;
39948;SDS011;29070;48.102;-1.652;2022-09-02T04:06:41;19.85;;;9.18;;
39948;SDS011;29070;48.102;-1.652;2022-09-02T04:11:41;23.13;;;10.77;;
39948;SDS011;29070;48.102;-1.652;2022-09-02T04:16:42;24.30;;;11.97;;
39948;SDS011;29070;48.102;-1.652;2022-09-02T04:21:43;31.23;;;11.90;;
39948;SDS011;29070;48.102;-1.652;2022-09-02T04:26:44;30.42;;;11.32;;
39948;SDS011;29070;48.102;-1.652;2022-09-02T04:31:45;23.08;;;12.07;;
39948;SDS011;29070;48.102;-1.652;2022-09-02T04:36:46;32.00;;;12.70;;
39948;SDS011;29070;48.102;-1.652;2022-09-02T04:41:47;49.42;;;18.35;;
39948;SDS011;29070;48.102;-1.652;2022-09-02T04:46:47;37.88;;;13.82;;
39948;SDS011;29070;48.102;-1.652;2022-09-02T04:51:48;34.25;;;14.23;;
39948;SDS011;29070;48.102;-1.652;2022-09-02T04:56:49;33.42;;;13.18;;
39948;SDS011;29070;48.102;-1.652;2022-09-02T05:01:49;32.60;;;13.93;;
39948;SDS011;29070;48.102;-1.652;2022-09-02T05:06:50;41.25;;;14.77;;
39948;SDS011;29070;48.102;-1.652;2022-09-02T05:11:50;26.87;;;13.67;;
39948;SDS011;29070;48.102;-1.652;2022-09-02T05:16:51;36.17;;;15.25;;
39948;SDS011;29070;48.102;-1.652;2022-09-02T05:21:52;34.97;;;14.88;;
39948;SDS011;29070;48.102;-1.652;2022-09-02T05:26:55;32.40;;;14.90;;
39948;SDS011;29070;48.102;-1.652;2022-09-02T05:31:55;31.35;;;14.93;;
39948;SDS011;29070;48.102;-1.652;2022-09-02T05:36:56;27.15;;;14.48;;
39948;SDS011;29070;48.102;-1.652;2022-09-02T05:41:56;32.20;;;14.77;;
39948;SDS011;29070;48.102;-1.652;2022-09-02T05:46:57;31.25;;;13.93;;
39948;SDS011;29070;48.102;-1.652;2022-09-02T05:51:58;29.15;;;14.27;;
39948;SDS011;29070;48.102;-1.652;2022-09-02T05:57:00;24.60;;;13.05;;
39948;SDS011;29070;48.102;-1.652;2022-09-02T06:02:03;24.13;;;12.43;;
39948;SDS011;29070;48.102;-1.652;2022-09-02T06:07:04;25.80;;;13.33;;
39948;SDS011;29070;48.102;-1.652;2022-09-02T06:12:04;27.00;;;13.45;;
39948;SDS011;29070;48.102;-1.652;2022-09-02T06:17:05;27.80;;;13.02;;
39948;SDS011;29070;48.102;-1.652;2022-09-02T06:22:05;30.40;;;13.07;;
39948;SDS011;29070;48.102;-1.652;2022-09-02T06:27:06;25.85;;;13.63;;
39948;SDS011;29070;48.102;-1.652;2022-09-02T06:32:06;21.10;;;12.20;;
39948;SDS011;29070;48.102;-1.652;2022-09-02T06:37:06;22.27;;;11.43;;
39948;SDS011;29070;48.102;-1.652;2022-09-02T06:42:07;22.40;;;11.67;;
39948;SDS011;29070;48.102;-1.652;2022-09-02T06:47:07;22.27;;;12.83;;
39948;SDS011;29070;48.102;-1.652;2022-09-02T06:52:07;22.37;;;12.57;;
39948;SDS011;29070;48.102;-1.652;2022-09-02T06:57:08;20.73;;;11.87;;
39948;SDS011;29070;48.102;-1.652;2022-09-02T07:02:08;20.17;;;12.20;;
39948;SDS011;29070;48.102;-1.652;2022-09-02T07:07:08;22.10;;;11.70;;
39948;SDS011;29070;48.102;-1.652;2022-09-02T07:12:11;21.98;;;12.00;;
39948;SDS011;29070;48.102;-1.652;2022-09-02T07:17:13;19.35;;;12.25;;
39948;SDS011;29070;48.102;-1.652;2022-09-02T07:22:20;23.90;;;13.38;;
39948;SDS011;29070;48.102;-1.652;2022-09-02T07:27:21;24.50;;;12.27;;
39948;SDS011;29070;48.102;-1.652;2022-09-02T07:32:21;26.07;;;12.50;;
39948;SDS011;29070;48.102;-1.652;2022-09-02T07:37:21;21.30;;;12.57;;
39948;SDS011;29070;48.102;-1.652;2022-09-02T07:42:22;18.92;;;11.30;;
39948;SDS011;29070;48.102;-1.652;2022-09-02T07:47:23;29.33;;;14.20;;
39948;SDS011;29070;48.102;-1.652;2022-09-02T07:52:23;22.73;;;12.57;;
39948;SDS011;29070;48.102;-1.652;2022-09-02T07:57:24;23.58;;;13.52;;
39948;SDS011;29070;48.102;-1.652;2022-09-02T08:02:24;27.53;;;13.67;;
39948;SDS011;29070;48.102;-1.652;2022-09-02T08:07:25;28.83;;;13.97;;
39948;SDS011;29070;48.102;-1.652;2022-09-02T08:12:26;22.20;;;11.37;;
39948;SDS011;29070;48.102;-1.652;2022-09-02T08:17:27;23.25;;;12.50;;
39948;SDS011;29070;48.102;-1.652;2022-09-02T08:22:32;24.83;;;12.63;;
39948;SDS011;29070;48.102;-1.652;2022-09-02T08:27:34;29.50;;;12.82;;
39948;SDS011;29070;48.102;-1.652;2022-09-02T08:32:36;22.85;;;13.35;;
39948;SDS011;29070;48.102;-1.652;2022-09-02T08:37:37;24.05;;;12.63;;
39948;SDS011;29070;48.102;-1.652;2022-09-02T08:42:41;22.35;;;12.23;;
39948;SDS011;29070;48.102;-1.652;2022-09-02T08:47:46;23.17;;;11.88;;
39948;SDS011;29070;48.102;-1.652;2022-09-02T08:57:56;22.95;;;12.45;;
39948;SDS011;29070;48.102;-1.652;2022-09-02T09:03:45;22.73;;;12.10;;
39948;SDS011;29070;48.102;-1.652;2022-09-02T09:24:35;22.88;;;12.93;;
39948;SDS011;29070;48.102;-1.652;2022-09-02T09:29:39;24.40;;;13.35;;
39948;SDS011;29070;48.102;-1.652;2022-09-02T09:39:52;23.75;;;13.63;;
39948;SDS011;29070;48.102;-1.652;2022-09-02T09:44:52;22.77;;;12.37;;
39948;SDS011;29070;48.102;-1.652;2022-09-02T09:50:09;20.23;;;13.03;;
39948;SDS011;29070;48.102;-1.652;2022-09-02T10:05:37;23.40;;;12.73;;
39948;SDS011;29070;48.102;-1.652;2022-09-02T10:10:39;23.77;;;13.77;;
39948;SDS011;29070;48.102;-1.652;2022-09-02T10:15:43;22.85;;;12.93;;
39948;SDS011;29070;48.102;-1.652;2022-09-02T10:26:19;22.25;;;13.23;;
39948;SDS011;29070;48.102;-1.652;2022-09-02T10:32:08;25.23;;;13.95;;
39948;SDS011;29070;48.102;-1.652;2022-09-02T10:42:30;20.70;;;11.23;;
39948;SDS011;29070;48.102;-1.652;2022-09-02T10:47:35;20.75;;;11.30;;
39948;SDS011;29070;48.102;-1.652;2022-09-02T10:52:42;18.52;;;10.18;;
39948;SDS011;29070;48.102;-1.652;2022-09-02T11:03:16;14.50;;;8.52;;
39948;SDS011;29070;48.102;-1.652;2022-09-02T11:08:42;13.93;;;8.07;;
39948;SDS011;29070;48.102;-1.652;2022-09-02T11:19:27;12.32;;;7.43;;
39948;SDS011;29070;48.102;-1.652;2022-09-02T11:34:54;12.20;;;7.47;;
39948;SDS011;29070;48.102;-1.652;2022-09-02T11:40:05;9.77;;;6.45;;
39948;SDS011;29070;48.102;-1.652;2022-09-02T11:56:12;13.77;;;7.50;;
39948;SDS011;29070;48.102;-1.652;2022-09-02T12:06:15;14.10;;;6.82;;
39948;SDS011;29070;48.102;-1.652;2022-09-02T12:16:42;12.52;;;6.57;;
39948;SDS011;29070;48.102;-1.652;2022-09-02T12:22:30;12.77;;;6.50;;
39948;SDS011;29070;48.102;-1.652;2022-09-02T12:27:18;12.57;;;6.35;;
39948;SDS011;29070;48.102;-1.652;2022-09-02T12:37:49;10.15;;;6.47;;
39948;SDS011;29070;48.102;-1.652;2022-09-02T12:42:57;14.05;;;6.35;;
39948;SDS011;29070;48.102;-1.652;2022-09-02T12:48:06;9.43;;;6.03;;
39948;SDS011;29070;48.102;-1.652;2022-09-02T12:58:24;13.50;;;6.07;;
39948;SDS011;29070;48.102;-1.652;2022-09-02T13:09:13;10.05;;;6.65;;
39948;SDS011;29070;48.102;-1.652;2022-09-02T13:15:00;10.18;;;6.20;;
39948;SDS011;29070;48.102;-1.652;2022-09-02T13:35:29;8.82;;;5.50;;
39948;SDS011;29070;48.102;-1.652;2022-09-02T13:40:30;7.10;;;4.82;;
39948;SDS011;29070;48.102;-1.652;2022-09-02T13:45:33;8.32;;;4.93;;
39948;SDS011;29070;48.102;-1.652;2022-09-02T13:50:34;10.18;;;5.03;;
39948;SDS011;29070;48.102;-1.652;2022-09-02T13:55:36;11.38;;;8.30;;
39948;SDS011;29070;48.102;-1.652;2022-09-02T14:00:40;9.68;;;5.10;;
39948;SDS011;29070;48.102;-1.652;2022-09-02T14:05:42;5.97;;;4.30;;
39948;SDS011;29070;48.102;-1.652;2022-09-02T14:10:45;3.50;;;2.00;;
39948;SDS011;29070;48.102;-1.652;2022-09-02T14:15:47;2.97;;;1.83;;
39948;SDS011;29070;48.102;-1.652;2022-09-02T14:21:02;2.45;;;1.00;;
39948;SDS011;29070;48.102;-1.652;2022-09-02T14:26:20;4.65;;;0.80;;
39948;SDS011;29070;48.102;-1.652;2022-09-02T14:31:27;2.20;;;1.10;;
39948;SDS011;29070;48.102;-1.652;2022-09-02T14:41:34;1.23;;;0.73;;
39948;SDS011;29070;48.102;-1.652;2022-09-02T14:46:42;0.70;;;0.57;;
39948;SDS011;29070;48.102;-1.652;2022-09-02T14:51:46;1.70;;;0.80;;
39948;SDS011;29070;48.102;-1.652;2022-09-02T14:56:52;1.77;;;1.08;;
39948;SDS011;29070;48.102;-1.652;2022-09-02T15:01:53;3.17;;;1.00;;
39948;SDS011;29070;48.102;-1.652;2022-09-02T15:06:56;1.10;;;0.82;;
39948;SDS011;29070;48.102;-1.652;2022-09-02T15:12:01;1.75;;;0.93;;
39948;SDS011;29070;48.102;-1.652;2022-09-02T15:17:03;2.83;;;1.30;;
39948;SDS011;29070;48.102;-1.652;2022-09-02T15:22:07;3.78;;;1.50;;
39948;SDS011;29070;48.102;-1.652;2022-09-02T15:27:10;3.65;;;1.63;;
39948;SDS011;29070;48.102;-1.652;2022-09-02T15:32:11;2.60;;;1.48;;
39948;SDS011;29070;48.102;-1.652;2022-09-02T15:37:11;2.13;;;1.53;;
39948;SDS011;29070;48.102;-1.652;2022-09-02T15:42:11;2.17;;;1.70;;
39948;SDS011;29070;48.102;-1.652;2022-09-02T15:47:12;4.27;;;1.67;;
39948;SDS011;29070;48.102;-1.652;2022-09-02T15:52:12;2.53;;;1.63;;
39948;SDS011;29070;48.102;-1.652;2022-09-02T15:57:12;1.60;;;1.37;;
39948;SDS011;29070;48.102;-1.652;2022-09-02T16:02:13;2.65;;;1.40;;
39948;SDS011;29070;48.102;-1.652;2022-09-02T16:07:13;2.40;;;0.93;;
39948;SDS011;29070;48.102;-1.652;2022-09-02T16:12:14;3.83;;;1.50;;
39948;SDS011;29070;48.102;-1.652;2022-09-02T16:17:15;1.67;;;1.23;;
39948;SDS011;29070;48.102;-1.652;2022-09-02T16:22:15;1.67;;;1.27;;
39948;SDS011;29070;48.102;-1.652;2022-09-02T16:27:16;1.63;;;1.30;;
39948;SDS011;29070;48.102;-1.652;2022-09-02T16:32:36;2.58;;;1.08;;
39948;SDS011;29070;48.102;-1.652;2022-09-02T16:37:36;2.03;;;1.03;;
39948;SDS011;29070;48.102;-1.652;2022-09-02T16:42:37;1.20;;;0.70;;
39948;SDS011;29070;48.102;-1.652;2022-09-02T16:47:37;2.90;;;1.07;;
39948;SDS011;29070;48.102;-1.652;2022-09-02T16:52:37;2.13;;;1.00;;
39948;SDS011;29070;48.102;-1.652;2022-09-02T16:57:40;1.35;;;0.80;;
39948;SDS011;29070;48.102;-1.652;2022-09-02T17:02:40;2.43;;;0.80;;
39948;SDS011;29070;48.102;-1.652;2022-09-02T17:07:40;2.23;;;1.10;;
39948;SDS011;29070;48.102;-1.652;2022-09-02T17:12:41;1.83;;;0.97;;
39948;SDS011;29070;48.102;-1.652;2022-09-02T17:17:41;1.63;;;0.80;;
39948;SDS011;29070;48.102;-1.652;2022-09-02T17:22:41;2.17;;;0.87;;
39948;SDS011;29070;48.102;-1.652;2022-09-02T17:27:43;1.45;;;0.70;;
39948;SDS011;29070;48.102;-1.652;2022-09-02T17:32:43;2.40;;;0.80;;
39948;SDS011;29070;48.102;-1.652;2022-09-02T17:37:43;1.33;;;1.00;;
39948;SDS011;29070;48.102;-1.652;2022-09-02T17:42:44;2.10;;;1.00;;
39948;SDS011;29070;48.102;-1.652;2022-09-02T17:47:44;2.47;;;0.80;;
39948;SDS011;29070;48.102;-1.652;2022-09-02T17:52:44;6.93;;;1.13;;
39948;SDS011;29070;48.102;-1.652;2022-09-02T18:03:06;1.50;;;0.55;;
39948;SDS011;29070;48.102;-1.652;2022-09-02T18:08:16;1.08;;;0.55;;
39948;SDS011;29070;48.102;-1.652;2022-09-02T18:13:18;1.73;;;0.70;;
39948;SDS011;29070;48.102;-1.652;2022-09-02T18:18:25;1.00;;;0.63;;
39948;SDS011;29070;48.102;-1.652;2022-09-02T18:50:04;1.75;;;1.10;;
39948;SDS011;29070;48.102;-1.652;2022-09-02T18:55:14;3.15;;;1.20;;
39948;SDS011;29070;48.102;-1.652;2022-09-02T19:00:16;2.20;;;1.35;;
39948;SDS011;29070;48.102;-1.652;2022-09-02T19:05:23;1.92;;;1.05;;
39948;SDS011;29070;48.102;-1.652;2022-09-02T19:10:25;2.30;;;1.60;;
39948;SDS011;29070;48.102;-1.652;2022-09-02T19:15:25;6.23;;;1.57;;
39948;SDS011;29070;48.102;-1.652;2022-09-02T19:20:26;3.55;;;1.45;;
39948;SDS011;29070;48.102;-1.652;2022-09-02T19:25:27;2.70;;;1.52;;
39948;SDS011;29070;48.102;-1.652;2022-09-02T19:30:29;2.38;;;1.45;;
39948;SDS011;29070;48.102;-1.652;2022-09-02T19:35:35;2.03;;;1.40;;
39948;SDS011;29070;48.102;-1.652;2022-09-02T19:40:37;1.75;;;1.17;;
39948;SDS011;29070;48.102;-1.652;2022-09-02T19:45:38;2.75;;;1.60;;
39948;SDS011;29070;48.102;-1.652;2022-09-02T19:50:40;1.80;;;1.23;;
39948;SDS011;29070;48.102;-1.652;2022-09-02T19:55:43;3.72;;;1.85;;
39948;SDS011;29070;48.102;-1.652;2022-09-02T20:00:43;3.47;;;1.52;;
39948;SDS011;29070;48.102;-1.652;2022-09-02T20:05:44;3.42;;;1.73;;
39948;SDS011;29070;48.102;-1.652;2022-09-02T20:10:50;3.87;;;1.83;;
39948;SDS011;29070;48.102;-1.652;2022-09-02T20:15:55;3.55;;;1.70;;
39948;SDS011;29070;48.102;-1.652;2022-09-02T20:20:57;4.38;;;1.80;;
39948;SDS011;29070;48.102;-1.652;2022-09-02T20:36:40;1.60;;;1.33;;
39948;SDS011;29070;48.102;-1.652;2022-09-02T20:41:53;2.28;;;1.42;;
39948;SDS011;29070;48.102;-1.652;2022-09-02T21:03:49;5.63;;;2.10;;
39948;SDS011;29070;48.102;-1.652;2022-09-02T21:09:14;2.63;;;1.73;;
39948;SDS011;29070;48.102;-1.652;2022-09-02T21:14:27;3.47;;;1.42;;
39948;SDS011;29070;48.102;-1.652;2022-09-02T21:19:59;2.92;;;1.52;;
39948;SDS011;29070;48.102;-1.652;2022-09-02T21:25:07;2.73;;;1.50;;
39948;SDS011;29070;48.102;-1.652;2022-09-02T21:30:21;3.33;;;1.48;;
39948;SDS011;29070;48.102;-1.652;2022-09-02T21:35:28;3.22;;;1.65;;
39948;SDS011;29070;48.102;-1.652;2022-09-02T21:51:59;3.58;;;1.70;;
39948;SDS011;29070;48.102;-1.652;2022-09-02T22:07:43;3.58;;;1.95;;
39948;SDS011;29070;48.102;-1.652;2022-09-02T22:12:48;5.13;;;2.65;;
39948;SDS011;29070;48.102;-1.652;2022-09-02T22:17:51;5.43;;;2.78;;
39948;SDS011;29070;48.102;-1.652;2022-09-02T22:23:01;3.75;;;2.33;;
39948;SDS011;29070;48.102;-1.652;2022-09-02T22:33:18;5.18;;;2.22;;
39948;SDS011;29070;48.102;-1.652;2022-09-02T22:43:33;4.07;;;2.60;;
39948;SDS011;29070;48.102;-1.652;2022-09-02T22:48:49;7.07;;;3.10;;
39948;SDS011;29070;48.102;-1.652;2022-09-02T23:04:53;8.93;;;5.97;;
39948;SDS011;29070;48.102;-1.652;2022-09-02T23:10:00;11.18;;;6.80;;
39948;SDS011;29070;48.102;-1.652;2022-09-02T23:15:24;13.10;;;7.47;;
39948;SDS011;29070;48.102;-1.652;2022-09-02T23:25:58;10.63;;;6.87;;
39948;SDS011;29070;48.102;-1.652;2022-09-02T23:31:40;13.98;;;6.80;;
39948;SDS011;29070;48.102;-1.652;2022-09-02T23:36:47;14.15;;;6.88;;
39948;SDS011;29070;48.102;-1.652;2022-09-02T23:42:01;17.13;;;7.63;;
39948;SDS011;29070;48.102;-1.652;2022-09-02T23:52:24;9.40;;;6.35;;
